Time;durP1;ratioP1;P1;durP2;ratioP2;P2;SDS_P1;SDS_P2;PMS_P1;PMS_P2;Temp;Humidity;BMP_temperature;BMP_pressure;BME280_temperature;BME280_humidity;BME280_pressure;Samples;Min_cycle;Max_cycle;Signal;HPM_P1;HPM_P2
2021/01/29 00:00:37;;;;;;;24.65;12.35;;;4.90;99.90;;;;;;5101021;27;20478;-76
2021/01/29 00:03:05;;;;;;;23.33;11.15;;;4.90;99.90;;;;;;5075773;27;20478;-76
2021/01/29 00:05:38;;;;;;;18.83;10.15;;;4.90;99.90;;;;;;5089569;27;20382;-76
2021/01/29 00:08:04;;;;;;;20.75;10.82;;;4.90;99.90;;;;;;5093804;27;20087;-76
2021/01/29 00:10:30;;;;;;;25.88;12.07;;;4.90;99.90;;;;;;5087323;27;20483;-77
2021/01/29 00:12:56;;;;;;;22.75;11.75;;;5.00;99.90;;;;;;5107263;27;20050;-76
2021/01/29 00:15:21;;;;;;;20.83;11.65;;;5.00;99.90;;;;;;5106477;27;20045;-77
2021/01/29 00:17:47;;;;;;;17.70;10.13;;;5.00;99.90;;;;;;5106433;27;20028;-76
2021/01/29 00:20:15;;;;;;;29.73;12.82;;;5.00;99.90;;;;;;5088334;27;20473;-76
2021/01/29 00:22:41;;;;;;;26.98;15.10;;;5.00;99.90;;;;;;5107075;27;20142;-76
2021/01/29 00:25:08;;;;;;;33.25;14.65;;;5.10;99.90;;;;;;5105051;27;20077;-76
2021/01/29 00:27:33;;;;;;;33.80;14.27;;;5.00;99.90;;;;;;5084356;27;20038;-75
2021/01/29 00:29:59;;;;;;;21.15;10.77;;;5.10;99.90;;;;;;5075061;27;20031;-76
2021/01/29 00:32:24;;;;;;;34.05;14.25;;;5.10;99.90;;;;;;5104095;27;20393;-76
2021/01/29 00:34:50;;;;;;;18.45;10.48;;;5.10;99.90;;;;;;5088198;27;20266;-77
2021/01/29 00:37:15;;;;;;;28.17;13.20;;;5.20;99.90;;;;;;5095087;28;20035;-76
2021/01/29 00:39:41;;;;;;;23.52;12.23;;;5.20;99.90;;;;;;5075937;28;20519;-76
2021/01/29 00:42:06;;;;;;;19.52;10.55;;;5.30;99.90;;;;;;5092667;28;20378;-76
2021/01/29 00:44:32;;;;;;;21.27;10.30;;;5.30;99.90;;;;;;5089546;28;20119;-76
2021/01/29 00:46:57;;;;;;;26.92;13.52;;;5.30;99.90;;;;;;5089921;28;20052;-76
2021/01/29 00:49:23;;;;;;;34.58;13.32;;;5.30;99.90;;;;;;5107595;28;20114;-76
2021/01/29 00:51:48;;;;;;;26.75;12.00;;;5.30;99.90;;;;;;5101939;28;20169;-75
2021/01/29 00:54:14;;;;;;;33.47;15.10;;;5.30;99.90;;;;;;5103818;28;20431;-75
2021/01/29 00:56:39;;;;;;;23.15;10.93;;;5.30;99.90;;;;;;5091946;28;20121;-76
2021/01/29 00:59:05;;;;;;;28.80;11.95;;;5.30;99.90;;;;;;5107204;28;20153;-76
2021/01/29 01:01:30;;;;;;;33.00;15.98;;;5.40;99.90;;;;;;5054883;27;20072;-76
2021/01/29 01:03:56;;;;;;;28.63;13.70;;;5.40;99.90;;;;;;5060428;28;20072;-76
2021/01/29 01:06:21;;;;;;;27.02;13.13;;;5.40;99.90;;;;;;5074088;28;20157;-75
2021/01/29 01:08:47;;;;;;;38.53;14.23;;;5.50;99.90;;;;;;5080696;28;20427;-76
2021/01/29 01:11:12;;;;;;;35.88;14.65;;;5.40;99.90;;;;;;5087129;28;20032;-75
2021/01/29 01:13:38;;;;;;;29.05;12.82;;;5.50;99.90;;;;;;5089286;28;20035;-75
2021/01/29 01:16:04;;;;;;;45.92;15.82;;;5.60;99.90;;;;;;5092640;28;20032;-76
2021/01/29 01:18:30;;;;;;;41.45;16.23;;;5.60;99.90;;;;;;5079117;28;20387;-76
2021/01/29 01:20:55;;;;;;;43.35;15.30;;;5.60;99.90;;;;;;5089892;28;20058;-76
2021/01/29 01:23:20;;;;;;;50.00;16.60;;;5.60;99.90;;;;;;5082050;28;20019;-76
2021/01/29 01:25:46;;;;;;;29.90;12.68;;;5.60;99.90;;;;;;5092803;27;20543;-75
2021/01/29 01:28:12;;;;;;;31.02;14.18;;;5.80;99.90;;;;;;5106783;27;20110;-75
2021/01/29 01:30:38;;;;;;;45.25;17.52;;;5.70;99.90;;;;;;5080583;27;20268;-75
2021/01/29 01:33:04;;;;;;;52.88;18.88;;;5.70;99.90;;;;;;5101839;27;20038;-76
2021/01/29 01:35:30;;;;;;;40.60;14.63;;;5.70;99.90;;;;;;5094875;27;20284;-75
2021/01/29 01:37:55;;;;;;;34.75;14.75;;;5.80;99.90;;;;;;5111273;27;20572;-76
2021/01/29 01:40:24;;;;;;;32.33;13.18;;;5.80;99.90;;;;;;5108710;27;20132;-76
2021/01/29 01:42:49;;;;;;;46.60;16.15;;;5.80;99.90;;;;;;5110421;27;20027;-75
2021/01/29 01:45:27;;;;;;;38.78;15.10;;;5.80;99.90;;;;;;5099714;27;20062;-76
2021/01/29 01:48:05;;;;;;;49.97;18.95;;;5.80;99.90;;;;;;5109095;27;20106;-75
2021/01/29 01:50:39;;;;;;;34.30;13.38;;;5.90;99.90;;;;;;5110448;27;20045;-75
2021/01/29 01:53:08;;;;;;;45.50;17.13;;;5.90;99.90;;;;;;5074735;27;20483;-76
2021/01/29 01:55:35;;;;;;;37.17;15.50;;;5.90;99.90;;;;;;5102084;27;20027;-76
2021/01/29 01:58:00;;;;;;;45.25;17.40;;;6.00;99.90;;;;;;5097860;27;20118;-75
2021/01/29 02:00:28;;;;;;;49.13;17.60;;;6.00;99.90;;;;;;5109592;27;20111;-75
2021/01/29 02:02:56;;;;;;;49.08;17.63;;;6.00;99.90;;;;;;5091817;27;20569;-75
2021/01/29 02:05:27;;;;;;;50.17;17.58;;;6.10;99.90;;;;;;5088779;27;20035;-75
2021/01/29 02:07:57;;;;;;;37.65;15.35;;;6.20;99.90;;;;;;5094369;27;20035;-76
2021/01/29 02:10:28;;;;;;;44.05;15.40;;;6.20;99.90;;;;;;5111814;27;20035;-76
2021/01/29 02:12:55;;;;;;;42.05;17.20;;;6.20;99.90;;;;;;5075932;27;20035;-75
2021/01/29 02:15:22;;;;;;;47.80;18.88;;;6.30;99.90;;;;;;5108518;27;20043;-76
2021/01/29 02:18:25;;;;;;;39.50;16.17;;;6.30;99.90;;;;;;5109432;27;20452;-75
2021/01/29 02:21:12;;;;;;;36.13;16.15;;;6.40;99.90;;;;;;5122796;27;20042;-75
2021/01/29 02:24:15;;;;;;;34.80;15.38;;;6.40;99.90;;;;;;5126332;27;20035;-75
2021/01/29 02:26:57;;;;;;;45.55;15.60;;;6.40;99.90;;;;;;5127754;27;20038;-75
2021/01/29 02:29:35;;;;;;;44.10;14.77;;;6.50;99.90;;;;;;5107293;27;20525;-76
2021/01/29 02:32:19;;;;;;;48.10;16.35;;;6.50;99.90;;;;;;5129883;27;20668;-75
2021/01/29 02:35:05;;;;;;;33.97;15.27;;;6.50;99.90;;;;;;5108868;27;20126;-75
2021/01/29 02:38:02;;;;;;;38.40;16.63;;;6.60;99.90;;;;;;5107615;27;20107;-75
2021/01/29 02:40:35;;;;;;;;;;;6.60;99.90;;;;;;5111455;27;20031;-76
2021/01/29 02:43:27;;;;;;;34.60;13.43;;;6.60;99.90;;;;;;5088758;27;19908;-75
2021/01/29 02:46:15;;;;;;;35.03;14.05;;;6.70;99.90;;;;;;5093391;27;20031;-75
2021/01/29 02:49:02;;;;;;;30.92;14.70;;;6.70;99.90;;;;;;5094477;27;20487;-76
2021/01/29 02:51:38;;;;;;;38.03;14.07;;;6.70;99.90;;;;;;5089971;27;20040;-76
2021/01/29 02:54:12;;;;;;;38.00;13.82;;;6.80;99.90;;;;;;5107089;27;20035;-76
2021/01/29 02:56:44;;;;;;;32.80;12.95;;;6.80;99.90;;;;;;5076460;27;20047;-76
2021/01/29 02:59:18;;;;;;;38.20;15.57;;;6.80;99.90;;;;;;5106590;27;20382;-75
2021/01/29 03:01:51;;;;;;;27.95;14.40;;;6.80;99.90;;;;;;5124064;27;20479;-76
2021/01/29 03:04:24;;;;;;;26.50;11.73;;;6.80;99.90;;;;;;5106704;27;20111;-75
2021/01/29 03:06:57;;;;;;;33.85;13.38;;;6.90;99.90;;;;;;5109289;27;20026;-75
2021/01/29 03:09:27;;;;;;;34.45;13.80;;;6.90;99.90;;;;;;5088476;27;21814;-76
2021/01/29 03:12:14;;;;;;;30.48;13.55;;;6.90;99.90;;;;;;5107491;27;20062;-76
2021/01/29 03:14:53;;;;;;;32.72;13.65;;;6.90;99.90;;;;;;5107094;27;20027;-76
2021/01/29 03:17:22;;;;;;;31.08;13.27;;;7.00;99.90;;;;;;5107552;27;20466;-76
2021/01/29 03:20:09;;;;;;;32.17;12.88;;;7.00;99.90;;;;;;5091456;27;20461;-75
2021/01/29 03:22:53;;;;;;;29.88;13.13;;;6.90;99.90;;;;;;5077766;27;20035;-75
2021/01/29 03:25:33;;;;;;;25.10;11.55;;;7.00;99.90;;;;;;5092687;27;20045;-75
2021/01/29 03:28:03;;;;;;;25.00;11.52;;;7.00;99.90;;;;;;5106715;27;20123;-76
2021/01/29 03:30:30;;;;;;;21.08;10.57;;;7.00;99.90;;;;;;5106149;27;20019;-76
2021/01/29 03:32:57;;;;;;;22.42;10.50;;;7.00;99.90;;;;;;5078333;27;20122;-75
2021/01/29 03:35:28;;;;;;;20.95;9.63;;;7.00;99.90;;;;;;5105432;27;20046;-75
2021/01/29 03:38:20;;;;;;;23.95;9.95;;;7.00;99.90;;;;;;5107697;27;20122;-75
2021/01/29 03:40:53;;;;;;;15.23;8.63;;;7.10;99.90;;;;;;5074427;27;20494;-75
2021/01/29 03:43:26;;;;;;;13.38;7.22;;;7.10;99.90;;;;;;5087205;27;20510;-77
2021/01/29 03:46:06;;;;;;;14.43;7.50;;;7.10;99.90;;;;;;5107475;27;20778;-77
2021/01/29 03:48:56;;;;;;;17.45;8.52;;;7.10;99.90;;;;;;5090519;28;20031;-77
2021/01/29 03:52:03;;;;;;;12.52;6.80;;;7.10;99.90;;;;;;5102009;27;20588;-77
2021/01/29 03:54:47;;;;;;;12.70;6.78;;;7.10;99.90;;;;;;5104233;27;20470;-77
2021/01/29 03:57:13;;;;;;;12.07;6.22;;;7.10;99.90;;;;;;5102713;27;20046;-77
2021/01/29 04:00:03;;;;;;;9.82;5.75;;;7.10;99.90;;;;;;5106637;27;20482;-77
2021/01/29 04:02:58;;;;;;;13.13;5.13;;;7.20;99.90;;;;;;5099900;27;20028;-77
2021/01/29 04:05:30;;;;;;;8.93;5.32;;;7.20;99.90;;;;;;5105525;27;20126;-77
2021/01/29 04:08:11;;;;;;;7.22;4.10;;;7.20;99.90;;;;;;5108585;27;20061;-77
2021/01/29 04:10:37;;;;;;;9.60;4.10;;;7.20;99.90;;;;;;5108746;27;20490;-77
2021/01/29 04:13:13;;;;;;;9.65;3.72;;;7.20;99.90;;;;;;5107798;27;20031;-77
2021/01/29 04:15:47;;;;;;;7.25;4.22;;;7.20;99.90;;;;;;5088260;27;20402;-77
2021/01/29 04:18:26;;;;;;;6.80;3.60;;;7.20;99.90;;;;;;5100642;27;20082;-77
2021/01/29 04:21:02;;;;;;;5.50;3.53;;;7.20;99.90;;;;;;5105866;27;20035;-77
2021/01/29 04:23:41;;;;;;;5.65;3.47;;;7.20;99.90;;;;;;5094058;27;20118;-77
2021/01/29 04:26:14;;;;;;;5.78;3.42;;;7.20;99.90;;;;;;5074212;27;20027;-77
2021/01/29 04:28:45;;;;;;;4.35;3.05;;;7.20;99.90;;;;;;5090186;28;20114;-78
2021/01/29 04:31:11;;;;;;;5.60;3.47;;;7.20;99.90;;;;;;5105775;27;20095;-78
2021/01/29 04:33:39;;;;;;;5.72;3.47;;;7.30;99.90;;;;;;5094733;27;20027;-77
2021/01/29 04:36:04;;;;;;;5.28;2.80;;;7.30;99.90;;;;;;5091077;28;20070;-77
2021/01/29 04:38:52;;;;;;;5.25;3.15;;;7.30;99.90;;;;;;5082968;28;20032;-77
2021/01/29 04:41:31;;;;;;;4.60;2.83;;;7.30;99.90;;;;;;5096263;28;20478;-78
2021/01/29 04:44:22;;;;;;;5.93;3.25;;;7.30;99.90;;;;;;5109117;28;20027;-77
2021/01/29 04:46:56;;;;;;;7.60;3.65;;;7.30;99.90;;;;;;5103151;28;20486;-78
2021/01/29 04:49:56;;;;;;;8.07;3.92;;;7.30;99.90;;;;;;5086792;28;20138;-78
2021/01/29 04:52:41;;;;;;;7.60;3.83;;;7.30;99.90;;;;;;5105014;28;20027;-77
2021/01/29 04:55:07;;;;;;;5.75;3.75;;;7.30;99.90;;;;;;5104927;28;20142;-77
2021/01/29 04:57:51;;;;;;;7.13;3.42;;;7.40;99.90;;;;;;5113261;28;20113;-77
2021/01/29 05:00:37;;;;;;;8.00;4.35;;;7.30;99.90;;;;;;5099049;27;20115;-77
2021/01/29 05:03:28;;;;;;;7.82;4.18;;;7.30;99.90;;;;;;5103135;27;20054;-77
2021/01/29 05:06:10;;;;;;;4.25;3.47;;;7.40;99.90;;;;;;5084338;27;20129;-77
2021/01/29 05:09:10;;;;;;;8.73;3.30;;;7.40;99.90;;;;;;5076422;27;20038;-77
2021/01/29 05:11:53;;;;;;;5.00;3.53;;;7.40;99.90;;;;;;5126055;27;20069;-78
2021/01/29 05:15:04;;;;;;;6.40;4.88;;;7.40;99.90;;;;;;5128217;27;20088;-78
2021/01/29 05:18:03;;;;;;;5.22;3.40;;;7.40;99.90;;;;;;5101815;27;20108;-78
2021/01/29 05:20:47;;;;;;;5.45;3.55;;;7.40;99.90;;;;;;5108877;27;20379;-78
2021/01/29 05:23:34;;;;;;;7.72;4.82;;;7.40;99.90;;;;;;5108522;27;20034;-78
2021/01/29 05:26:03;;;;;;;8.18;5.80;;;7.50;99.90;;;;;;5094082;27;20545;-78
2021/01/29 05:28:41;;;;;;;6.53;4.57;;;7.50;99.90;;;;;;5125074;27;20020;-77
2021/01/29 05:31:44;;;;;;;6.13;4.20;;;7.50;99.90;;;;;;5107264;27;20023;-77
2021/01/29 05:34:29;;;;;;;7.70;4.55;;;7.50;99.90;;;;;;5106013;27;20628;-79
2021/01/29 05:37:32;;;;;;;11.23;5.90;;;7.50;99.90;;;;;;5067695;27;20256;-78
2021/01/29 05:40:26;;;;;;;9.50;5.13;;;7.50;99.90;;;;;;5086263;27;20027;-78
2021/01/29 05:43:04;;;;;;;7.72;5.53;;;7.50;99.90;;;;;;5085648;27;20027;-78
2021/01/29 05:45:54;;;;;;;11.77;7.25;;;7.50;99.90;;;;;;5075902;27;20031;-78
2021/01/29 05:48:48;;;;;;;8.70;5.85;;;7.50;99.90;;;;;;5059768;27;20031;-78
2021/01/29 05:51:35;;;;;;;9.88;6.65;;;7.50;99.90;;;;;;5109877;27;20584;-78
2021/01/29 05:54:00;;;;;;;;;;;7.50;99.90;;;;;;5126771;27;20498;-78
2021/01/29 05:56:44;;;;;;;8.00;5.80;;;7.50;99.90;;;;;;5124031;27;19907;-77
2021/01/29 05:59:13;;;;;;;10.27;6.32;;;7.50;99.90;;;;;;5087571;27;20093;-78
2021/01/29 06:02:07;;;;;;;13.55;7.47;;;7.50;99.90;;;;;;5098128;27;20023;-77
2021/01/29 06:04:51;;;;;;;8.93;5.95;;;7.50;99.90;;;;;;5109280;27;20034;-78
2021/01/29 06:07:38;;;;;;;10.45;6.78;;;7.50;99.90;;;;;;5095667;27;20043;-77
2021/01/29 06:10:26;;;;;;;13.15;7.78;;;7.50;99.90;;;;;;5088967;27;20023;-77
2021/01/29 06:13:02;;;;;;;8.50;5.63;;;7.50;99.90;;;;;;5105426;27;20047;-78
2021/01/29 06:15:51;;;;;;;8.25;5.82;;;7.50;99.90;;;;;;5105676;27;20129;-77
2021/01/29 06:18:27;;;;;;;7.35;4.50;;;7.50;99.90;;;;;;5108173;27;20034;-77
2021/01/29 06:21:13;;;;;;;6.35;3.72;;;7.50;99.90;;;;;;5106353;27;20517;-78
2021/01/29 06:23:38;;;;;;;8.50;4.57;;;7.60;99.90;;;;;;5100489;27;20093;-77
2021/01/29 06:26:41;;;;;;;3.45;2.35;;;7.60;99.90;;;;;;5107575;27;20031;-77
2021/01/29 06:29:40;;;;;;;7.72;3.50;;;7.60;99.90;;;;;;5122487;27;20111;-78
2021/01/29 06:32:34;;;;;;;5.03;2.80;;;7.60;99.90;;;;;;5090392;27;20118;-77
2021/01/29 06:35:21;;;;;;;4.18;3.15;;;7.70;99.90;;;;;;5108192;27;20031;-78
2021/01/29 06:38:12;;;;;;;3.00;2.33;;;7.70;99.90;;;;;;5105727;27;20081;-77
2021/01/29 06:40:59;;;;;;;4.40;2.88;;;7.70;99.90;;;;;;5109829;27;20031;-77
2021/01/29 06:44:00;;;;;;;2.28;1.63;;;7.70;99.90;;;;;;5122477;27;20027;-77
2021/01/29 06:46:25;;;;;;;2.50;1.50;;;7.70;99.90;;;;;;5089497;27;20046;-77
2021/01/29 06:50:07;;;;;;;2.50;1.48;;;7.80;99.90;;;;;;5108369;27;20448;-77
2021/01/29 06:52:43;;;;;;;3.03;1.55;;;7.80;99.90;;;;;;5092075;27;20033;-77
2021/01/29 06:55:13;;;;;;;2.45;2.08;;;7.80;99.90;;;;;;5107436;27;20498;-77
2021/01/29 06:58:09;;;;;;;3.85;2.58;;;7.80;99.90;;;;;;5085177;27;20102;-77
2021/01/29 07:00:40;;;;;;;4.13;2.53;;;7.90;99.90;;;;;;5109606;27;20031;-78
2021/01/29 07:03:53;;;;;;;4.45;2.67;;;7.80;99.90;;;;;;5102382;27;20372;-78
2021/01/29 07:06:44;;;;;;;8.02;3.17;;;7.90;99.90;;;;;;5100062;27;20035;-77
2021/01/29 07:09:18;;;;;;;8.10;4.68;;;7.90;99.90;;;;;;5124429;27;20020;-78
2021/01/29 07:12:04;;;;;;;3.22;2.20;;;7.90;99.90;;;;;;5092212;27;20042;-78
2021/01/29 07:14:50;;;;;;;4.03;2.38;;;7.90;99.90;;;;;;5121064;27;20027;-77
2021/01/29 07:17:40;;;;;;;5.00;3.17;;;7.90;99.90;;;;;;5108642;27;20389;-78
2021/01/29 07:20:44;;;;;;;6.57;3.85;;;7.90;99.90;;;;;;5126813;27;20027;-77
2021/01/29 07:23:46;;;;;;;6.30;3.60;;;7.90;99.90;;;;;;5051862;27;20057;-77
2021/01/29 07:26:25;;;;;;;5.25;3.92;;;7.90;99.90;;;;;;5057137;27;20039;-77
2021/01/29 07:29:15;;;;;;;6.13;3.05;;;7.90;99.90;;;;;;5103276;27;20031;-77
2021/01/29 07:32:14;;;;;;;7.72;3.65;;;7.90;99.90;;;;;;5120401;27;20087;-78
2021/01/29 07:35:05;;;;;;;2.30;1.38;;;7.90;99.90;;;;;;5099789;28;20109;-78
2021/01/29 07:38:04;;;;;;;4.88;3.15;;;7.90;99.90;;;;;;5076574;27;20027;-78
2021/01/29 07:40:39;;;;;;;4.82;2.88;;;7.90;99.90;;;;;;5117350;27;20061;-77
2021/01/29 07:43:25;;;;;;;5.77;3.47;;;7.90;99.90;;;;;;5105911;27;20375;-77
2021/01/29 07:46:15;;;;;;;6.30;3.38;;;7.90;99.90;;;;;;5090524;27;20039;-77
2021/01/29 07:48:51;;;;;;;5.60;3.47;;;7.90;99.90;;;;;;5089527;27;20538;-77
2021/01/29 07:51:47;;;;;;;6.37;3.60;;;8.00;99.90;;;;;;5087555;27;20479;-77
2021/01/29 07:54:51;;;;;;;4.20;3.30;;;7.90;99.90;;;;;;5104185;27;20035;-77
2021/01/29 07:57:28;;;;;;;4.35;2.25;;;8.00;99.90;;;;;;5091197;27;20479;-77
2021/01/29 08:00:16;;;;;;;6.53;4.43;;;8.00;99.90;;;;;;5077043;27;20419;-77
2021/01/29 08:03:08;;;;;;;9.30;5.82;;;8.00;99.90;;;;;;5106281;27;20038;-77
2021/01/29 08:06:02;;;;;;;6.55;4.00;;;8.00;99.90;;;;;;5107220;27;20031;-77
2021/01/29 08:08:44;;;;;;;6.60;2.92;;;8.00;99.90;;;;;;5105847;27;20070;-77
2021/01/29 08:11:09;;;;;;;7.50;4.30;;;8.00;99.90;;;;;;5074600;27;20454;-77
2021/01/29 08:13:35;;;;;;;7.22;4.35;;;8.10;99.90;;;;;;5095271;27;20024;-77
2021/01/29 08:16:18;;;;;;;9.98;6.63;;;8.10;99.90;;;;;;5122248;27;20063;-78
2021/01/29 08:18:57;;;;;;;5.93;3.88;;;8.10;99.90;;;;;;5124327;27;20027;-78
2021/01/29 08:22:05;;;;;;;5.75;4.05;;;8.10;99.90;;;;;;5103395;27;20045;-78
2021/01/29 08:24:40;;;;;;;10.88;5.55;;;8.10;99.90;;;;;;5085495;27;20502;-77
2021/01/29 08:27:21;;;;;;;8.70;5.63;;;8.10;99.90;;;;;;5100659;27;20057;-77
2021/01/29 08:30:12;;;;;;;11.48;5.63;;;8.10;99.90;;;;;;5122156;27;20494;-78
2021/01/29 08:33:07;;;;;;;8.07;4.88;;;8.00;99.90;;;;;;5088648;28;20027;-78
2021/01/29 08:36:10;;;;;;;7.90;4.38;;;8.10;99.90;;;;;;5103468;28;20054;-78
2021/01/29 08:38:43;;;;;;;3.35;2.85;;;8.10;99.90;;;;;;5041923;28;20037;-78
2021/01/29 08:41:37;;;;;;;7.50;4.80;;;8.20;99.90;;;;;;5081960;28;20114;-77
2021/01/29 08:44:35;;;;;;;9.57;6.03;;;8.20;99.90;;;;;;5102422;28;20547;-78
2021/01/29 08:47:20;;;;;;;6.65;3.22;;;8.20;99.90;;;;;;5092761;28;20461;-78
2021/01/29 08:50:20;;;;;;;8.77;4.63;;;8.20;99.90;;;;;;5106143;28;20027;-77
2021/01/29 08:53:14;;;;;;;16.77;5.75;;;8.20;99.90;;;;;;5104512;28;20084;-78
2021/01/29 08:55:55;;;;;;;21.88;6.35;;;8.20;99.90;;;;;;5092251;28;20035;-78
2021/01/29 08:58:45;;;;;;;16.30;7.10;;;8.20;99.90;;;;;;5120903;28;20321;-78
2021/01/29 09:01:55;;;;;;;10.80;4.15;;;8.20;99.90;;;;;;5094921;28;20039;-77
2021/01/29 09:04:49;;;;;;;11.40;5.22;;;8.20;99.90;;;;;;5116289;28;20347;-77
2021/01/29 09:07:25;;;;;;;10.93;5.70;;;8.20;99.90;;;;;;5088760;28;20030;-77
2021/01/29 09:09:51;;;;;;;11.80;5.65;;;8.30;99.90;;;;;;5087569;28;20023;-78
2021/01/29 09:12:25;;;;;;;14.23;4.88;;;8.30;99.90;;;;;;5102936;28;20501;-78
2021/01/29 09:15:05;;;;;;;8.85;4.20;;;8.30;99.90;;;;;;5105547;28;20031;-78
2021/01/29 09:17:37;;;;;;;13.20;4.68;;;8.30;99.90;;;;;;5105141;28;20031;-78
2021/01/29 09:20:06;;;;;;;8.85;4.38;;;8.30;99.90;;;;;;5082428;28;20733;-78
2021/01/29 09:22:43;;;;;;;9.23;4.28;;;8.30;99.90;;;;;;5107599;27;20034;-78
2021/01/29 09:25:23;;;;;;;12.25;4.85;;;8.30;99.90;;;;;;5104044;28;20031;-77
2021/01/29 09:28:16;;;;;;;16.40;5.22;;;8.30;99.90;;;;;;5097592;28;20058;-78
2021/01/29 09:30:56;;;;;;;14.27;7.68;;;8.30;99.90;;;;;;5085540;28;20508;-78
2021/01/29 09:33:38;;;;;;;9.13;4.50;;;8.30;99.90;;;;;;5087306;28;20160;-78
2021/01/29 09:36:09;;;;;;;12.15;4.85;;;8.30;99.90;;;;;;5110760;28;20110;-78
2021/01/29 09:38:36;;;;;;;11.68;5.38;;;8.30;99.90;;;;;;5122338;28;20145;-78
2021/01/29 09:41:20;;;;;;;18.88;7.13;;;8.30;99.90;;;;;;5092363;28;20559;-78
2021/01/29 09:44:06;;;;;;;19.65;6.32;;;8.30;99.90;;;;;;5073743;28;20039;-78
2021/01/29 09:46:37;;;;;;;13.40;6.05;;;8.30;99.90;;;;;;5105973;27;20404;-78
2021/01/29 09:49:23;;;;;;;19.65;6.32;;;8.30;99.90;;;;;;5091964;27;20070;-78
2021/01/29 09:52:13;;;;;;;18.25;4.95;;;8.30;99.90;;;;;;5106153;27;20126;-78
2021/01/29 09:55:01;;;;;;;9.90;3.03;;;8.30;99.90;;;;;;5110030;27;20358;-78
2021/01/29 09:57:36;;;;;;;22.98;6.55;;;8.30;99.90;;;;;;5110479;27;20467;-78
2021/01/29 10:00:21;;;;;;;10.77;4.60;;;8.20;99.90;;;;;;5109688;27;20101;-78
2021/01/29 10:03:06;;;;;;;28.20;9.13;;;8.20;99.90;;;;;;5092779;27;20062;-78
2021/01/29 10:05:48;;;;;;;10.35;5.15;;;8.20;99.90;;;;;;5075325;27;20028;-78
2021/01/29 10:08:21;;;;;;;17.63;7.00;;;8.20;99.90;;;;;;5087162;27;20558;-78
2021/01/29 10:11:16;;;;;;;22.58;5.95;;;8.20;99.90;;;;;;5087921;27;20023;-77
2021/01/29 10:13:52;;;;;;;24.13;8.48;;;8.20;99.90;;;;;;5094904;27;20031;-78
2021/01/29 10:16:24;;;;;;;18.27;6.90;;;8.20;99.90;;;;;;5107049;27;20031;-77
2021/01/29 10:19:01;;;;;;;31.48;9.35;;;8.20;99.90;;;;;;5123463;27;20031;-77
2021/01/29 10:21:41;;;;;;;22.35;5.88;;;8.20;99.90;;;;;;5108889;27;20046;-77
2021/01/29 10:24:11;;;;;;;23.55;8.57;;;8.20;99.90;;;;;;5073099;27;20027;-77
2021/01/29 10:26:39;;;;;;;9.93;5.10;;;8.20;99.90;;;;;;5088246;27;20027;-77
2021/01/29 10:29:11;;;;;;;18.80;6.75;;;8.20;99.90;;;;;;5111115;27;20054;-77
2021/01/29 10:32:03;;;;;;;24.63;8.57;;;8.20;99.90;;;;;;5124869;27;20038;-77
2021/01/29 10:34:36;;;;;;;26.95;8.57;;;8.20;99.90;;;;;;5117864;27;20066;-78
2021/01/29 10:37:20;;;;;;;26.27;10.23;;;8.20;99.90;;;;;;5107374;27;20126;-77
2021/01/29 10:40:10;;;;;;;16.60;4.78;;;8.20;99.90;;;;;;5087412;27;20031;-77
2021/01/29 10:42:45;;;;;;;28.98;7.18;;;8.20;99.90;;;;;;5111460;27;20126;-78
2021/01/29 10:45:15;;;;;;;21.15;8.13;;;8.30;99.90;;;;;;5124242;27;20034;-78
2021/01/29 10:47:53;;;;;;;34.88;7.88;;;8.30;99.90;;;;;;5073906;27;20028;-77
2021/01/29 10:50:24;;;;;;;26.73;8.05;;;8.40;99.90;;;;;;5073462;27;20034;-78
2021/01/29 10:53:14;;;;;;;19.92;7.68;;;8.40;99.90;;;;;;5089654;27;20573;-77
2021/01/29 10:55:41;;;;;;;33.85;8.27;;;8.50;99.90;;;;;;5105936;27;20505;-78
2021/01/29 10:58:34;;;;;;;28.17;6.20;;;8.60;99.90;;;;;;5091851;27;20036;-77
2021/01/29 11:01:01;;;;;;;28.13;7.78;;;8.70;99.90;;;;;;5110799;27;20405;-78
2021/01/29 11:03:43;;;;;;;27.50;7.68;;;8.80;99.90;;;;;;5074661;27;20035;-78
2021/01/29 11:06:10;;;;;;;28.75;8.70;;;8.80;99.90;;;;;;5106945;27;20092;-78
2021/01/29 11:08:43;;;;;;;24.30;6.50;;;8.80;99.90;;;;;;5088609;27;20490;-78
2021/01/29 11:11:24;;;;;;;14.88;5.88;;;8.80;99.90;;;;;;5104553;27;20055;-78
2021/01/29 11:13:54;;;;;;;18.88;5.78;;;8.90;99.90;;;;;;5091516;27;20522;-78
2021/01/29 11:16:22;;;;;;;11.80;3.25;;;8.90;99.90;;;;;;5090191;27;20042;-78
2021/01/29 11:18:59;;;;;;;28.30;5.65;;;8.90;99.90;;;;;;5105845;27;20072;-78
2021/01/29 11:21:26;;;;;;;15.63;4.68;;;9.00;99.90;;;;;;5076484;27;22714;-78
2021/01/29 11:24:05;;;;;;;29.50;6.45;;;9.00;99.90;;;;;;5079578;27;20023;-78
2021/01/29 11:26:34;;;;;;;28.17;5.38;;;9.00;99.90;;;;;;5082493;27;20023;-78
2021/01/29 11:29:16;;;;;;;24.30;6.22;;;9.00;99.90;;;;;;5090028;27;20520;-78
2021/01/29 11:31:45;;;;;;;16.73;5.65;;;9.00;99.90;;;;;;5092122;27;20031;-78
2021/01/29 11:34:22;;;;;;;23.13;5.40;;;9.00;99.90;;;;;;5104331;27;20498;-78
2021/01/29 11:37:16;;;;;;;26.00;8.30;;;9.00;99.90;;;;;;5089176;27;20351;-79
2021/01/29 11:40:05;;;;;;;27.52;6.85;;;9.10;99.90;;;;;;5123390;27;20471;-77
2021/01/29 11:42:52;;;;;;;17.73;5.72;;;9.20;99.90;;;;;;5107119;27;20097;-77
2021/01/29 11:45:21;;;;;;;23.70;5.50;;;9.20;99.90;;;;;;5107047;27;20035;-77
2021/01/29 11:47:49;;;;;;;21.67;6.32;;;9.30;99.90;;;;;;5089746;27;20061;-78
2021/01/29 11:50:30;;;;;;;19.90;6.18;;;9.40;99.90;;;;;;5107119;27;20517;-78
2021/01/29 11:52:57;;;;;;;24.48;5.55;;;9.40;99.90;;;;;;5108207;27;20023;-79
2021/01/29 11:55:26;;;;;;;21.80;5.43;;;9.60;99.90;;;;;;5086885;27;20035;-79
2021/01/29 11:58:11;;;;;;;39.00;8.10;;;9.70;99.90;;;;;;5090181;27;20822;-79
2021/01/29 12:00:48;;;;;;;15.52;5.65;;;9.60;99.90;;;;;;5090196;27;20397;-79
2021/01/29 12:03:29;;;;;;;19.45;5.30;;;9.50;99.90;;;;;;5086351;27;20122;-78
2021/01/29 12:06:01;;;;;;;17.38;5.10;;;9.70;99.90;;;;;;5074454;27;20093;-78
2021/01/29 12:09:00;;;;;;;23.88;4.38;;;9.70;99.90;;;;;;4384006;27;10000256;-79
2021/01/29 12:11:32;;;;;;;25.20;6.93;;;9.70;99.90;;;;;;5078431;27;20036;-78
2021/01/29 12:14:19;;;;;;;18.15;5.38;;;9.60;99.90;;;;;;5071491;27;20061;-78
2021/01/29 12:16:45;;;;;;;30.73;6.35;;;9.60;99.90;;;;;;5118962;27;20295;-79
2021/01/29 12:19:18;;;;;;;14.48;4.82;;;9.60;99.90;;;;;;5089141;27;20038;-79
2021/01/29 12:21:49;;;;;;;21.00;5.68;;;9.60;99.90;;;;;;5069607;28;20495;-78
2021/01/29 12:24:33;;;;;;;18.15;5.03;;;9.50;99.90;;;;;;5085230;27;20031;-78
2021/01/29 12:27:07;;;;;;;26.25;6.20;;;9.40;99.90;;;;;;5101281;27;20119;-79
2021/01/29 12:29:55;;;;;;;18.90;5.28;;;9.40;99.90;;;;;;5072348;27;20020;-78
2021/01/29 12:32:42;;;;;;;16.17;6.70;;;9.40;99.90;;;;;;5092994;28;20027;-78
2021/01/29 12:35:25;;;;;;;19.92;5.63;;;9.40;99.90;;;;;;5118138;27;20042;-78
2021/01/29 12:38:02;;;;;;;16.10;5.35;;;9.30;99.90;;;;;;5089877;27;20024;-78
2021/01/29 12:40:52;;;;;;;13.48;5.97;;;9.30;99.90;;;;;;5093719;28;20034;-78
2021/01/29 12:43:28;;;;;;;23.35;6.20;;;9.30;99.90;;;;;;5116273;28;20023;-78
2021/01/29 12:46:06;;;;;;;35.65;9.02;;;9.30;99.90;;;;;;5109069;28;20027;-78
2021/01/29 12:48:55;;;;;;;21.00;5.07;;;9.30;99.90;;;;;;5081942;28;20111;-78
2021/01/29 12:51:44;;;;;;;18.67;6.88;;;9.30;99.90;;;;;;5091748;27;20047;-79
2021/01/29 12:54:38;;;;;;;28.35;7.72;;;9.30;99.90;;;;;;5105035;28;20474;-79
2021/01/29 12:57:14;;;;;;;20.17;5.20;;;9.30;99.90;;;;;;5052086;28;20019;-79
2021/01/29 12:59:46;;;;;;;33.30;7.00;;;9.30;99.90;;;;;;5089052;28;20037;-78
2021/01/29 13:02:33;;;;;;;33.78;7.88;;;9.30;99.90;;;;;;5099999;28;20015;-78
2021/01/29 13:05:09;;;;;;;12.23;4.38;;;9.30;99.90;;;;;;5092500;28;20031;-77
2021/01/29 13:07:44;;;;;;;14.02;4.03;;;9.30;99.90;;;;;;5102790;28;20055;-80
2021/01/29 13:10:36;;;;;;;19.95;5.60;;;9.30;99.90;;;;;;5085697;28;20132;-77
2021/01/29 13:13:20;;;;;;;19.92;4.75;;;9.30;99.90;;;;;;5067110;28;20499;-78
2021/01/29 13:16:07;;;;;;;10.52;2.72;;;9.50;99.90;;;;;;5074425;28;20490;-77
2021/01/29 13:18:39;;;;;;;23.27;5.28;;;9.40;99.90;;;;;;5084253;28;20387;-77
2021/01/29 13:21:10;;;;;;;17.25;5.00;;;9.50;99.90;;;;;;5105343;27;20572;-77
2021/01/29 13:23:39;;;;;;;9.30;3.30;;;9.50;99.90;;;;;;5107986;27;20114;-80
2021/01/29 13:26:07;;;;;;;4.65;2.17;;;9.50;99.90;;;;;;5090181;27;20047;-77
2021/01/29 13:28:36;;;;;;;24.90;5.38;;;9.60;99.90;;;;;;5092000;27;20031;-77
2021/01/29 13:31:24;;;;;;;22.55;6.57;;;9.70;99.90;;;;;;5109087;27;20031;-77
2021/01/29 13:33:54;;;;;;;23.15;5.05;;;9.60;99.90;;;;;;5087970;27;20363;-77
2021/01/29 13:36:43;;;;;;;14.70;4.90;;;9.60;99.90;;;;;;5107105;27;20042;-78
2021/01/29 13:39:10;;;;;;;18.77;4.10;;;9.70;99.90;;;;;;5107439;27;20118;-78
2021/01/29 13:41:46;;;;;;;15.85;5.10;;;9.70;99.90;;;;;;5101616;27;20039;-78
2021/01/29 13:44:28;;;;;;;16.38;5.63;;;9.70;99.90;;;;;;5083156;27;20044;-78
2021/01/29 13:46:53;;;;;;;30.48;5.70;;;9.60;99.90;;;;;;5106403;27;20033;-78
2021/01/29 13:49:27;;;;;;;20.35;6.05;;;9.60;99.90;;;;;;5107657;27;20487;-78